sensor_id;sensor_type;location;lat;lon;timestamp;pressure;altitude;pressure_sealevel;temperature;humidity
73952;BME280;62304;47.662;18.324;2022-12-18T00:02:57;101813.19;;;-2.86;88.91
73952;BME280;62304;47.662;18.324;2022-12-18T00:06:01;101815.25;;;-2.93;88.77
73952;BME280;62304;47.662;18.324;2022-12-18T00:09:04;101817.88;;;-2.98;88.88
73952;BME280;62304;47.662;18.324;2022-12-18T00:12:07;101831.44;;;-2.98;88.64
73952;BME280;62304;47.662;18.324;2022-12-18T00:15:17;101837.34;;;-3.01;89.07
73952;BME280;62304;47.662;18.324;2022-12-18T00:18:19;101843.00;;;-3.03;87.99
73952;BME280;62304;47.662;18.324;2022-12-18T00:21:22;101849.03;;;-3.01;87.79
73952;BME280;62304;47.662;18.324;2022-12-18T00:24:25;101842.41;;;-3.21;88.12
73952;BME280;62304;47.662;18.324;2022-12-18T00:27:28;101837.88;;;-3.32;88.43
73952;BME280;62304;47.662;18.324;2022-12-18T00:30:31;101846.09;;;-3.27;88.86
73952;BME280;62304;47.662;18.324;2022-12-18T00:33:35;101860.47;;;-3.27;89.14
73952;BME280;62304;47.662;18.324;2022-12-18T00:36:40;101861.66;;;-3.23;89.26
73952;BME280;62304;47.662;18.324;2022-12-18T00:39:43;101860.81;;;-3.23;89.20
73952;BME280;62304;47.662;18.324;2022-12-18T00:42:46;101870.78;;;-3.12;88.74
73952;BME280;62304;47.662;18.324;2022-12-18T00:45:58;101861.00;;;-3.13;88.50
73952;BME280;62304;47.662;18.324;2022-12-18T00:49:01;101864.00;;;-2.98;87.60
73952;BME280;62304;47.662;18.324;2022-12-18T00:52:03;101861.56;;;-3.11;87.48
73952;BME280;62304;47.662;18.324;2022-12-18T00:55:07;101874.66;;;-3.08;87.32
73952;BME280;62304;47.662;18.324;2022-12-18T00:58:11;101888.44;;;-3.26;88.39
73952;BME280;62304;47.662;18.324;2022-12-18T01:01:15;101886.06;;;-3.23;88.22
73952;BME280;62304;47.662;18.324;2022-12-18T01:04:18;101901.37;;;-3.56;89.86
73952;BME280;62304;47.662;18.324;2022-12-18T01:07:21;101902.97;;;-3.83;91.08
73952;BME280;62304;47.662;18.324;2022-12-18T01:10:24;101912.09;;;-3.61;90.15
73952;BME280;62304;47.662;18.324;2022-12-18T01:13:32;101898.44;;;-3.66;89.81
73952;BME280;62304;47.662;18.324;2022-12-18T01:16:34;101903.63;;;-3.53;89.79
73952;BME280;62304;47.662;18.324;2022-12-18T01:19:39;101907.75;;;-3.51;89.58
73952;BME280;62304;47.662;18.324;2022-12-18T01:22:44;101909.72;;;-3.46;89.35
73952;BME280;62304;47.662;18.324;2022-12-18T01:25:47;101903.91;;;-3.78;89.48
73952;BME280;62304;47.662;18.324;2022-12-18T01:28:50;101913.81;;;-4.06;89.41
73952;BME280;62304;47.662;18.324;2022-12-18T01:31:55;101905.72;;;-4.18;90.61
73952;BME280;62304;47.662;18.324;2022-12-18T01:34:58;101910.53;;;-4.08;89.72
73952;BME280;62304;47.662;18.324;2022-12-18T01:38:02;101913.84;;;-3.95;89.40
73952;BME280;62304;47.662;18.324;2022-12-18T01:41:04;101916.19;;;-3.98;88.89
73952;BME280;62304;47.662;18.324;2022-12-18T01:47:53;101918.53;;;-3.90;89.50
73952;BME280;62304;47.662;18.324;2022-12-18T01:50:57;101918.91;;;-3.98;89.04
73952;BME280;62304;47.662;18.324;2022-12-18T01:54:00;101923.00;;;-3.84;88.94
73952;BME280;62304;47.662;18.324;2022-12-18T01:57:04;101926.78;;;-3.74;87.96
73952;BME280;62304;47.662;18.324;2022-12-18T02:00:18;101931.19;;;-3.56;86.36
73952;BME280;62304;47.662;18.324;2022-12-18T02:03:25;101916.44;;;-4.00;87.70
73952;BME280;62304;47.662;18.324;2022-12-18T02:06:40;101925.72;;;-4.19;89.09
73952;BME280;62304;47.662;18.324;2022-12-18T02:13:13;101934.50;;;-4.58;89.84
73952;BME280;62304;47.662;18.324;2022-12-18T02:16:25;101939.25;;;-4.42;87.80
73952;BME280;62304;47.662;18.324;2022-12-18T02:26:31;101945.25;;;-4.28;88.02
73952;BME280;62304;47.662;18.324;2022-12-18T02:29:54;101946.28;;;-4.52;87.17
73952;BME280;62304;47.662;18.324;2022-12-18T02:33:04;101961.63;;;-4.76;88.93
73952;BME280;62304;47.662;18.324;2022-12-18T02:36:09;101966.34;;;-5.01;91.78
73952;BME280;62304;47.662;18.324;2022-12-18T02:39:15;101973.38;;;-5.11;92.96
73952;BME280;62304;47.662;18.324;2022-12-18T02:42:19;101970.13;;;-5.02;92.43
73952;BME280;62304;47.662;18.324;2022-12-18T02:45:22;101980.44;;;-4.81;91.67
73952;BME280;62304;47.662;18.324;2022-12-18T02:48:34;101978.87;;;-4.59;91.17
73952;BME280;62304;47.662;18.324;2022-12-18T03:05:16;102002.69;;;-4.79;88.57
73952;BME280;62304;47.662;18.324;2022-12-18T03:08:27;102006.00;;;-4.77;89.22
73952;BME280;62304;47.662;18.324;2022-12-18T03:11:34;102004.41;;;-5.14;92.15
73952;BME280;62304;47.662;18.324;2022-12-18T03:15:16;102005.06;;;-5.00;91.26
73952;BME280;62304;47.662;18.324;2022-12-18T03:18:29;101994.31;;;-4.89;90.14
73952;BME280;62304;47.662;18.324;2022-12-18T03:21:39;101998.59;;;-4.81;89.57
73952;BME280;62304;47.662;18.324;2022-12-18T03:24:45;102004.16;;;-4.94;88.77
73952;BME280;62304;47.662;18.324;2022-12-18T03:27:53;102014.38;;;-4.96;89.39
73952;BME280;62304;47.662;18.324;2022-12-18T03:31:00;102021.38;;;-5.07;89.88
73952;BME280;62304;47.662;18.324;2022-12-18T03:34:12;102022.00;;;-5.23;89.41
73952;BME280;62304;47.662;18.324;2022-12-18T03:37:17;102021.59;;;-4.90;88.33
73952;BME280;62304;47.662;18.324;2022-12-18T03:40:24;102030.97;;;-4.93;87.70
73952;BME280;62304;47.662;18.324;2022-12-18T03:53:36;102041.66;;;-4.98;87.87
73952;BME280;62304;47.662;18.324;2022-12-18T03:56:49;102047.59;;;-5.07;87.21
73952;BME280;62304;47.662;18.324;2022-12-18T04:00:08;102049.78;;;-5.16;88.25
73952;BME280;62304;47.662;18.324;2022-12-18T04:03:16;102044.22;;;-5.21;87.27
73952;BME280;62304;47.662;18.324;2022-12-18T04:06:28;102048.66;;;-5.26;86.81
73952;BME280;62304;47.662;18.324;2022-12-18T04:09:33;102044.66;;;-5.42;87.31
73952;BME280;62304;47.662;18.324;2022-12-18T04:12:38;102045.31;;;-5.64;89.65
73952;BME280;62304;47.662;18.324;2022-12-18T04:15:44;102045.97;;;-5.69;90.03
73952;BME280;62304;47.662;18.324;2022-12-18T04:18:47;102048.69;;;-5.69;89.93
73952;BME280;62304;47.662;18.324;2022-12-18T04:21:50;102053.66;;;-5.66;89.83
73952;BME280;62304;47.662;18.324;2022-12-18T04:24:53;102062.75;;;-5.60;88.93
73952;BME280;62304;47.662;18.324;2022-12-18T04:27:56;102075.88;;;-5.82;90.39
73952;BME280;62304;47.662;18.324;2022-12-18T04:30:59;102073.38;;;-5.83;90.75
73952;BME280;62304;47.662;18.324;2022-12-18T04:34:03;102066.84;;;-5.76;90.34
73952;BME280;62304;47.662;18.324;2022-12-18T04:37:08;102065.66;;;-5.62;89.66
73952;BME280;62304;47.662;18.324;2022-12-18T04:40:11;102073.13;;;-5.57;89.23
73952;BME280;62304;47.662;18.324;2022-12-18T04:43:14;102087.69;;;-5.58;89.09
73952;BME280;62304;47.662;18.324;2022-12-18T04:46:17;102086.41;;;-5.56;89.25
73952;BME280;62304;47.662;18.324;2022-12-18T04:49:20;102083.03;;;-5.51;88.70
73952;BME280;62304;47.662;18.324;2022-12-18T04:52:23;102079.06;;;-5.49;88.79
73952;BME280;62304;47.662;18.324;2022-12-18T04:55:27;102083.88;;;-5.33;87.36
73952;BME280;62304;47.662;18.324;2022-12-18T04:58:29;102098.53;;;-5.40;87.07
73952;BME280;62304;47.662;18.324;2022-12-18T05:01:32;102108.28;;;-5.21;86.26
73952;BME280;62304;47.662;18.324;2022-12-18T05:04:38;102097.03;;;-5.36;87.11
73952;BME280;62304;47.662;18.324;2022-12-18T05:07:42;102105.63;;;-5.46;87.41
73952;BME280;62304;47.662;18.324;2022-12-18T05:10:44;102102.44;;;-5.36;86.71
73952;BME280;62304;47.662;18.324;2022-12-18T05:13:47;102105.72;;;-5.34;86.53
73952;BME280;62304;47.662;18.324;2022-12-18T05:16:50;102092.44;;;-5.36;87.01
73952;BME280;62304;47.662;18.324;2022-12-18T05:19:58;102106.12;;;-5.55;87.36
73952;BME280;62304;47.662;18.324;2022-12-18T05:23:01;102117.87;;;-5.43;87.72
73952;BME280;62304;47.662;18.324;2022-12-18T05:26:05;102127.03;;;-5.44;87.20
73952;BME280;62304;47.662;18.324;2022-12-18T05:29:08;102117.66;;;-5.42;85.50
73952;BME280;62304;47.662;18.324;2022-12-18T05:32:15;102121.75;;;-5.33;86.26
73952;BME280;62304;47.662;18.324;2022-12-18T05:35:18;102123.91;;;-5.41;86.66
73952;BME280;62304;47.662;18.324;2022-12-18T05:38:23;102129.50;;;-5.61;86.37
73952;BME280;62304;47.662;18.324;2022-12-18T05:41:27;102133.00;;;-5.60;86.26
73952;BME280;62304;47.662;18.324;2022-12-18T05:44:30;102134.72;;;-5.66;86.63
73952;BME280;62304;47.662;18.324;2022-12-18T05:47:33;102132.25;;;-5.67;87.17
73952;BME280;62304;47.662;18.324;2022-12-18T05:50:37;102139.41;;;-5.79;87.05
73952;BME280;62304;47.662;18.324;2022-12-18T05:53:41;102140.75;;;-5.88;87.42
73952;BME280;62304;47.662;18.324;2022-12-18T05:56:45;102149.56;;;-5.99;88.14
73952;BME280;62304;47.662;18.324;2022-12-18T05:59:50;102158.09;;;-6.02;88.41
73952;BME280;62304;47.662;18.324;2022-12-18T06:02:53;102156.94;;;-5.88;88.37
73952;BME280;62304;47.662;18.324;2022-12-18T06:05:56;102161.03;;;-5.79;87.98
73952;BME280;62304;47.662;18.324;2022-12-18T06:08:59;102162.09;;;-5.56;85.98
73952;BME280;62304;47.662;18.324;2022-12-18T06:12:04;102168.63;;;-5.94;88.30
73952;BME280;62304;47.662;18.324;2022-12-18T06:15:07;102164.12;;;-6.07;88.25
73952;BME280;62304;47.662;18.324;2022-12-18T06:18:10;102160.13;;;-5.98;87.57
73952;BME280;62304;47.662;18.324;2022-12-18T06:21:13;102162.88;;;-6.04;86.94
73952;BME280;62304;47.662;18.324;2022-12-18T06:24:16;102169.84;;;-5.90;86.42
73952;BME280;62304;47.662;18.324;2022-12-18T06:27:19;102183.19;;;-5.95;87.45
73952;BME280;62304;47.662;18.324;2022-12-18T06:30:23;102179.13;;;-6.11;87.24
73952;BME280;62304;47.662;18.324;2022-12-18T06:33:26;102193.53;;;-5.92;87.48
73952;BME280;62304;47.662;18.324;2022-12-18T06:36:31;102186.66;;;-5.88;86.92
73952;BME280;62304;47.662;18.324;2022-12-18T06:39:33;102187.62;;;-6.07;88.04
73952;BME280;62304;47.662;18.324;2022-12-18T06:42:36;102195.78;;;-6.20;89.05
73952;BME280;62304;47.662;18.324;2022-12-18T06:45:39;102201.16;;;-6.14;88.79
73952;BME280;62304;47.662;18.324;2022-12-18T06:48:43;102198.81;;;-6.04;88.71
73952;BME280;62304;47.662;18.324;2022-12-18T06:51:48;102208.19;;;-6.06;88.74
73952;BME280;62304;47.662;18.324;2022-12-18T06:54:51;102205.50;;;-6.13;89.10
73952;BME280;62304;47.662;18.324;2022-12-18T06:57:54;102212.81;;;-6.20;89.20
73952;BME280;62304;47.662;18.324;2022-12-18T07:01:01;102216.84;;;-6.35;89.28
73952;BME280;62304;47.662;18.324;2022-12-18T07:04:04;102224.47;;;-6.26;89.15
73952;BME280;62304;47.662;18.324;2022-12-18T07:07:07;102237.97;;;-6.26;89.83
73952;BME280;62304;47.662;18.324;2022-12-18T07:10:10;102242.78;;;-6.34;90.06
73952;BME280;62304;47.662;18.324;2022-12-18T07:13:13;102238.22;;;-6.34;90.31
73952;BME280;62304;47.662;18.324;2022-12-18T07:16:19;102249.81;;;-6.27;90.17
73952;BME280;62304;47.662;18.324;2022-12-18T07:19:27;102252.47;;;-6.14;92.62
73952;BME280;62304;47.662;18.324;2022-12-18T07:22:31;102257.56;;;-5.93;90.67
73952;BME280;62304;47.662;18.324;2022-12-18T07:25:35;102262.88;;;-5.80;89.91
73952;BME280;62304;47.662;18.324;2022-12-18T07:28:39;102269.59;;;-5.64;90.23
73952;BME280;62304;47.662;18.324;2022-12-18T07:31:43;102279.28;;;-5.50;91.15
73952;BME280;62304;47.662;18.324;2022-12-18T07:34:46;102278.22;;;-5.18;90.33
73952;BME280;62304;47.662;18.324;2022-12-18T07:37:49;102288.69;;;-4.97;90.45
73952;BME280;62304;47.662;18.324;2022-12-18T07:40:51;102301.69;;;-4.88;90.22
73952;BME280;62304;47.662;18.324;2022-12-18T07:43:54;102299.25;;;-4.71;90.15
73952;BME280;62304;47.662;18.324;2022-12-18T07:46:57;102307.66;;;-4.37;90.13
73952;BME280;62304;47.662;18.324;2022-12-18T07:50:00;102305.03;;;-4.07;89.74
73952;BME280;62304;47.662;18.324;2022-12-18T07:53:03;102314.03;;;-3.95;88.99
73952;BME280;62304;47.662;18.324;2022-12-18T07:56:09;102307.06;;;-4.21;89.61
73952;BME280;62304;47.662;18.324;2022-12-18T07:59:29;102314.78;;;-4.06;89.90
73952;BME280;62304;47.662;18.324;2022-12-18T08:02:32;102320.44;;;-3.90;90.06
73952;BME280;62304;47.662;18.324;2022-12-18T08:05:36;102331.47;;;-3.73;90.12
73952;BME280;62304;47.662;18.324;2022-12-18T08:08:38;102336.88;;;-3.55;90.19
73952;BME280;62304;47.662;18.324;2022-12-18T08:11:44;102343.19;;;-3.43;89.69
73952;BME280;62304;47.662;18.324;2022-12-18T08:14:46;102345.50;;;-3.17;89.50
73952;BME280;62304;47.662;18.324;2022-12-18T08:17:49;102347.19;;;-3.05;88.93
73952;BME280;62304;47.662;18.324;2022-12-18T08:20:52;102342.84;;;-3.06;88.85
73952;BME280;62304;47.662;18.324;2022-12-18T08:23:58;102351.09;;;-3.01;89.10
73952;BME280;62304;47.662;18.324;2022-12-18T08:27:01;102344.28;;;-2.92;89.51
73952;BME280;62304;47.662;18.324;2022-12-18T08:30:17;102348.22;;;-2.65;89.39
73952;BME280;62304;47.662;18.324;2022-12-18T08:33:20;102344.41;;;-2.06;88.90
73952;BME280;62304;47.662;18.324;2022-12-18T08:36:24;102348.97;;;-1.72;87.63
73952;BME280;62304;47.662;18.324;2022-12-18T08:39:28;102354.69;;;-1.18;87.90
73952;BME280;62304;47.662;18.324;2022-12-18T08:42:31;102363.97;;;-0.69;84.46
73952;BME280;62304;47.662;18.324;2022-12-18T08:45:54;102353.56;;;-0.23;85.06
73952;BME280;62304;47.662;18.324;2022-12-18T08:48:57;102351.03;;;0.51;84.99
73952;BME280;62304;47.662;18.324;2022-12-18T08:52:01;102353.84;;;1.09;83.82
73952;BME280;62304;47.662;18.324;2022-12-18T08:55:06;102352.41;;;1.33;79.46
73952;BME280;62304;47.662;18.324;2022-12-18T08:58:08;102348.87;;;1.69;82.70
73952;BME280;62304;47.662;18.324;2022-12-18T09:01:12;102355.25;;;0.85;76.21
73952;BME280;62304;47.662;18.324;2022-12-18T09:04:16;102346.00;;;1.91;80.17
73952;BME280;62304;47.662;18.324;2022-12-18T09:07:19;102345.47;;;2.45;77.31
73952;BME280;62304;47.662;18.324;2022-12-18T09:10:22;102349.34;;;2.54;73.79
73952;BME280;62304;47.662;18.324;2022-12-18T09:13:25;102353.34;;;3.63;74.15
73952;BME280;62304;47.662;18.324;2022-12-18T09:16:29;102346.22;;;3.42;73.29
73952;BME280;62304;47.662;18.324;2022-12-18T09:19:34;102344.47;;;4.21;71.08
73952;BME280;62304;47.662;18.324;2022-12-18T09:22:37;102350.84;;;3.87;66.45
73952;BME280;62304;47.662;18.324;2022-12-18T09:25:40;102353.88;;;3.75;63.86
73952;BME280;62304;47.662;18.324;2022-12-18T09:28:43;102362.59;;;4.86;65.63
73952;BME280;62304;47.662;18.324;2022-12-18T09:31:46;102354.16;;;4.67;60.23
73952;BME280;62304;47.662;18.324;2022-12-18T09:34:49;102358.38;;;4.45;62.80
73952;BME280;62304;47.662;18.324;2022-12-18T09:37:52;102354.22;;;4.47;63.18
73952;BME280;62304;47.662;18.324;2022-12-18T09:41:00;102361.06;;;5.08;61.81
73952;BME280;62304;47.662;18.324;2022-12-18T09:47:36;102359.91;;;5.14;58.12
73952;BME280;62304;47.662;18.324;2022-12-18T09:50:40;102357.00;;;5.39;55.12
73952;BME280;62304;47.662;18.324;2022-12-18T09:53:47;102350.09;;;6.04;61.73
73952;BME280;62304;47.662;18.324;2022-12-18T09:56:52;102357.38;;;5.95;60.74
73952;BME280;62304;47.662;18.324;2022-12-18T09:59:59;102355.75;;;5.89;57.45
73952;BME280;62304;47.662;18.324;2022-12-18T10:03:14;102339.56;;;6.34;55.38
73952;BME280;62304;47.662;18.324;2022-12-18T10:06:20;102354.00;;;6.26;54.68
73952;BME280;62304;47.662;18.324;2022-12-18T10:09:37;102351.84;;;5.95;52.92
73952;BME280;62304;47.662;18.324;2022-12-18T10:13:09;102360.03;;;5.71;53.53
73952;BME280;62304;47.662;18.324;2022-12-18T10:16:13;102349.94;;;6.42;56.95
73952;BME280;62304;47.662;18.324;2022-12-18T10:26:05;102357.62;;;6.87;55.37
73952;BME280;62304;47.662;18.324;2022-12-18T10:29:13;102345.28;;;6.61;50.20
73952;BME280;62304;47.662;18.324;2022-12-18T10:32:27;102342.81;;;6.60;49.91
73952;BME280;62304;47.662;18.324;2022-12-18T10:35:30;102343.38;;;6.99;49.02
73952;BME280;62304;47.662;18.324;2022-12-18T10:38:33;102343.31;;;6.43;48.39
73952;BME280;62304;47.662;18.324;2022-12-18T10:41:36;102343.69;;;6.97;49.17
73952;BME280;62304;47.662;18.324;2022-12-18T10:44:40;102338.69;;;8.27;51.11
73952;BME280;62304;47.662;18.324;2022-12-18T10:47:47;102330.97;;;7.33;48.22
73952;BME280;62304;47.662;18.324;2022-12-18T10:50:51;102323.41;;;7.25;47.99
73952;BME280;62304;47.662;18.324;2022-12-18T10:54:16;102321.44;;;7.26;46.64
73952;BME280;62304;47.662;18.324;2022-12-18T11:00:30;102327.38;;;7.19;47.64
73952;BME280;62304;47.662;18.324;2022-12-18T11:03:47;102321.16;;;8.05;46.19
73952;BME280;62304;47.662;18.324;2022-12-18T11:07:05;102317.81;;;8.21;45.27
73952;BME280;62304;47.662;18.324;2022-12-18T11:13:21;102321.91;;;8.37;47.13
73952;BME280;62304;47.662;18.324;2022-12-18T11:16:27;102322.28;;;8.04;43.72
73952;BME280;62304;47.662;18.324;2022-12-18T11:19:39;102315.75;;;8.13;46.70
73952;BME280;62304;47.662;18.324;2022-12-18T11:22:57;102317.03;;;8.83;46.13
73952;BME280;62304;47.662;18.324;2022-12-18T11:26:03;102317.56;;;8.04;44.70
73952;BME280;62304;47.662;18.324;2022-12-18T11:29:15;102318.16;;;7.74;45.36
73952;BME280;62304;47.662;18.324;2022-12-18T11:32:27;102319.00;;;8.02;46.35
73952;BME280;62304;47.662;18.324;2022-12-18T11:35:44;102305.91;;;7.48;45.26
73952;BME280;62304;47.662;18.324;2022-12-18T11:38:52;102296.41;;;8.54;43.46
73952;BME280;62304;47.662;18.324;2022-12-18T11:45:27;102290.22;;;7.89;44.98
73952;BME280;62304;47.662;18.324;2022-12-18T11:48:53;102277.34;;;7.85;44.49
73952;BME280;62304;47.662;18.324;2022-12-18T11:52:24;102287.00;;;8.28;44.96
73952;BME280;62304;47.662;18.324;2022-12-18T11:55:37;102287.00;;;8.28;44.96
73952;BME280;62304;47.662;18.324;2022-12-18T11:58:46;102296.94;;;8.29;44.16
73952;BME280;62304;47.662;18.324;2022-12-18T12:01:53;102298.34;;;7.54;45.90
73952;BME280;62304;47.662;18.324;2022-12-18T12:19:16;102292.00;;;8.12;44.87
73952;BME280;62304;47.662;18.324;2022-12-18T12:22:23;102294.84;;;7.48;45.31
73952;BME280;62304;47.662;18.324;2022-12-18T12:25:37;102292.53;;;8.28;45.25
73952;BME280;62304;47.662;18.324;2022-12-18T12:32:07;102294.59;;;7.31;47.05
73952;BME280;62304;47.662;18.324;2022-12-18T12:35:31;102291.88;;;7.90;45.75
73952;BME280;62304;47.662;18.324;2022-12-18T12:38:57;102311.53;;;8.02;45.03
73952;BME280;62304;47.662;18.324;2022-12-18T12:42:12;102311.53;;;8.02;45.03
73952;BME280;62304;47.662;18.324;2022-12-18T12:45:45;102323.75;;;6.82;46.88
73952;BME280;62304;47.662;18.324;2022-12-18T12:48:56;102322.13;;;6.81;47.34
73952;BME280;62304;47.662;18.324;2022-12-18T12:52:12;102320.56;;;6.93;46.78
73952;BME280;62304;47.662;18.324;2022-12-18T12:55:19;102323.62;;;6.92;46.97
73952;BME280;62304;47.662;18.324;2022-12-18T13:05:42;102324.59;;;6.82;47.49
73952;BME280;62304;47.662;18.324;2022-12-18T13:08:58;102339.94;;;6.28;48.38
73952;BME280;62304;47.662;18.324;2022-12-18T13:12:04;102330.59;;;6.47;48.45
73952;BME280;62304;47.662;18.324;2022-12-18T13:15:40;102326.31;;;6.36;48.56
73952;BME280;62304;47.662;18.324;2022-12-18T13:18:52;102325.59;;;6.02;49.15
73952;BME280;62304;47.662;18.324;2022-12-18T13:21:57;102322.19;;;6.76;48.43
73952;BME280;62304;47.662;18.324;2022-12-18T13:24:59;102321.06;;;6.58;48.43
73952;BME280;62304;47.662;18.324;2022-12-18T13:34:36;102335.84;;;4.48;53.50
73952;BME280;62304;47.662;18.324;2022-12-18T13:37:43;102337.97;;;4.61;52.48
73952;BME280;62304;47.662;18.324;2022-12-18T13:43:57;102337.69;;;2.22;58.64
73952;BME280;62304;47.662;18.324;2022-12-18T13:47:33;102333.31;;;1.75;60.01
73952;BME280;62304;47.662;18.324;2022-12-18T13:50:38;102355.28;;;1.17;63.82
73952;BME280;62304;47.662;18.324;2022-12-18T13:53:50;102348.28;;;0.99;61.96
73952;BME280;62304;47.662;18.324;2022-12-18T13:56:53;102350.66;;;0.64;65.07
73952;BME280;62304;47.662;18.324;2022-12-18T13:59:57;102361.00;;;0.41;66.99
73952;BME280;62304;47.662;18.324;2022-12-18T14:03:00;102357.72;;;0.39;67.33
73952;BME280;62304;47.662;18.324;2022-12-18T14:06:07;102355.09;;;0.27;65.21
73952;BME280;62304;47.662;18.324;2022-12-18T14:09:34;102357.81;;;0.06;66.15
73952;BME280;62304;47.662;18.324;2022-12-18T14:12:38;102362.50;;;-0.11;68.56
73952;BME280;62304;47.662;18.324;2022-12-18T14:16:05;102369.59;;;-0.27;68.34
73952;BME280;62304;47.662;18.324;2022-12-18T14:19:15;102378.87;;;-0.44;69.54
73952;BME280;62304;47.662;18.324;2022-12-18T14:22:21;102385.47;;;-0.56;72.15
73952;BME280;62304;47.662;18.324;2022-12-18T14:25:30;102387.13;;;-0.55;72.65
73952;BME280;62304;47.662;18.324;2022-12-18T14:28:43;102381.41;;;-0.70;73.11
73952;BME280;62304;47.662;18.324;2022-12-18T14:32:14;102386.13;;;-0.66;73.32
73952;BME280;62304;47.662;18.324;2022-12-18T14:35:20;102403.13;;;-0.75;74.04
73952;BME280;62304;47.662;18.324;2022-12-18T14:38:47;102400.94;;;-0.90;75.05
73952;BME280;62304;47.662;18.324;2022-12-18T14:41:51;102394.84;;;-0.97;75.33
73952;BME280;62304;47.662;18.324;2022-12-18T14:48:47;102386.37;;;-1.12;75.21
73952;BME280;62304;47.662;18.324;2022-12-18T14:51:55;102389.75;;;-1.21;76.03
73952;BME280;62304;47.662;18.324;2022-12-18T14:54:58;102394.97;;;-1.31;76.47
73952;BME280;62304;47.662;18.324;2022-12-18T14:58:02;102403.78;;;-1.41;76.92
73952;BME280;62304;47.662;18.324;2022-12-18T15:01:06;102401.78;;;-1.45;76.89
73952;BME280;62304;47.662;18.324;2022-12-18T15:04:28;102411.38;;;-1.54;76.35
73952;BME280;62304;47.662;18.324;2022-12-18T15:07:46;102415.78;;;-1.65;76.87
73952;BME280;62304;47.662;18.324;2022-12-18T15:10:52;102430.47;;;-1.77;77.20
73952;BME280;62304;47.662;18.324;2022-12-18T15:13:58;102430.81;;;-1.85;78.43
73952;BME280;62304;47.662;18.324;2022-12-18T15:17:23;102433.91;;;-1.93;78.72
73952;BME280;62304;47.662;18.324;2022-12-18T15:20:31;102450.44;;;-1.95;78.88
73952;BME280;62304;47.662;18.324;2022-12-18T15:23:50;102448.44;;;-1.99;79.36
73952;BME280;62304;47.662;18.324;2022-12-18T15:26:54;102444.28;;;-1.90;78.96
73952;BME280;62304;47.662;18.324;2022-12-18T15:33:23;102460.13;;;-1.99;79.72
73952;BME280;62304;47.662;18.324;2022-12-18T15:36:28;102468.53;;;-2.12;80.41
73952;BME280;62304;47.662;18.324;2022-12-18T15:39:39;102460.72;;;-2.20;80.14
73952;BME280;62304;47.662;18.324;2022-12-18T15:42:43;102466.66;;;-2.11;80.23
73952;BME280;62304;47.662;18.324;2022-12-18T15:46:11;102458.50;;;-2.11;80.05
73952;BME280;62304;47.662;18.324;2022-12-18T15:49:16;102460.72;;;-2.31;81.28
73952;BME280;62304;47.662;18.324;2022-12-18T15:52:22;102462.09;;;-2.40;81.44
73952;BME280;62304;47.662;18.324;2022-12-18T15:55:31;102457.28;;;-2.27;81.71
73952;BME280;62304;47.662;18.324;2022-12-18T15:58:59;102453.00;;;-2.46;82.20
73952;BME280;62304;47.662;18.324;2022-12-18T16:02:14;102463.59;;;-2.56;82.52
73952;BME280;62304;47.662;18.324;2022-12-18T16:05:24;102462.41;;;-2.60;81.72
73952;BME280;62304;47.662;18.324;2022-12-18T16:08:31;102473.56;;;-2.79;83.61
73952;BME280;62304;47.662;18.324;2022-12-18T16:11:37;102486.56;;;-2.81;84.69
73952;BME280;62304;47.662;18.324;2022-12-18T16:14:50;102485.06;;;-2.66;82.70
73952;BME280;62304;47.662;18.324;2022-12-18T16:17:54;102497.41;;;-2.52;81.92
73952;BME280;62304;47.662;18.324;2022-12-18T16:20:59;102505.06;;;-2.60;81.77
73952;BME280;62304;47.662;18.324;2022-12-18T16:24:03;102510.72;;;-2.50;81.02
73952;BME280;62304;47.662;18.324;2022-12-18T16:27:07;102504.97;;;-2.42;81.16
73952;BME280;62304;47.662;18.324;2022-12-18T16:30:17;102509.56;;;-2.54;81.20
73952;BME280;62304;47.662;18.324;2022-12-18T16:33:22;102505.91;;;-2.48;80.72
73952;BME280;62304;47.662;18.324;2022-12-18T16:36:28;102505.78;;;-2.53;81.24
73952;BME280;62304;47.662;18.324;2022-12-18T16:39:34;102497.50;;;-2.58;81.78
73952;BME280;62304;47.662;18.324;2022-12-18T16:42:40;102494.56;;;-2.86;83.56
73952;BME280;62304;47.662;18.324;2022-12-18T16:45:44;102495.91;;;-2.77;83.22
73952;BME280;62304;47.662;18.324;2022-12-18T16:48:48;102487.75;;;-3.07;84.50
73952;BME280;62304;47.662;18.324;2022-12-18T16:51:52;102486.56;;;-3.29;86.28
73952;BME280;62304;47.662;18.324;2022-12-18T16:54:56;102488.22;;;-3.28;86.28
73952;BME280;62304;47.662;18.324;2022-12-18T16:58:00;102484.06;;;-3.30;86.09
73952;BME280;62304;47.662;18.324;2022-12-18T17:01:08;102475.47;;;-3.27;84.36
73952;BME280;62304;47.662;18.324;2022-12-18T17:04:12;102474.28;;;-3.31;84.58
73952;BME280;62304;47.662;18.324;2022-12-18T17:07:16;102479.59;;;-3.25;84.15
73952;BME280;62304;47.662;18.324;2022-12-18T17:10:20;102482.78;;;-3.28;83.95
73952;BME280;62304;47.662;18.324;2022-12-18T17:13:26;102484.66;;;-3.28;83.82
73952;BME280;62304;47.662;18.324;2022-12-18T17:16:31;102489.94;;;-3.33;83.91
73952;BME280;62304;47.662;18.324;2022-12-18T17:19:37;102490.41;;;-3.36;84.21
73952;BME280;62304;47.662;18.324;2022-12-18T17:22:42;102496.03;;;-3.38;84.02
73952;BME280;62304;47.662;18.324;2022-12-18T17:25:47;102493.41;;;-3.44;84.76
73952;BME280;62304;47.662;18.324;2022-12-18T17:28:51;102495.56;;;-3.71;84.80
73952;BME280;62304;47.662;18.324;2022-12-18T17:31:55;102493.38;;;-3.80;84.62
73952;BME280;62304;47.662;18.324;2022-12-18T17:35:02;102489.78;;;-3.74;84.59
73952;BME280;62304;47.662;18.324;2022-12-18T17:38:24;102503.00;;;-3.84;84.70
73952;BME280;62304;47.662;18.324;2022-12-18T17:41:29;102498.22;;;-3.82;84.24
73952;BME280;62304;47.662;18.324;2022-12-18T17:44:33;102493.53;;;-3.93;85.22
73952;BME280;62304;47.662;18.324;2022-12-18T17:47:37;102491.28;;;-4.03;85.88
73952;BME280;62304;47.662;18.324;2022-12-18T17:50:41;102491.25;;;-3.96;85.10